Time;durP1;ratioP1;P1;durP2;ratioP2;P2;SDS_P1;SDS_P2;PMS_P1;PMS_P2;Temp;Humidity;BMP_temperature;BMP_pressure;BME280_temperature;BME280_humidity;BME280_pressure;Samples;Min_cycle;Max_cycle;Signal;HPM_P1;HPM_P2
2023/12/08 00:00:45;;;;;;;14.23;13.17;;;6.30;14.60;;;;;;5062217;28;20523;-50
2023/12/08 00:03:12;;;;;;;16.20;15.10;;;6.00;15.20;;;;;;5058277;28;20234;-51
2023/12/08 00:05:37;;;;;;;15.73;14.70;;;5.90;15.90;;;;;;5067251;28;20423;-51
2023/12/08 00:08:03;;;;;;;15.07;14.07;;;5.80;16.30;;;;;;5048710;28;20801;-52
2023/12/08 00:10:28;;;;;;;16.00;15.00;;;5.70;16.50;;;;;;5060229;28;20187;-50
2023/12/08 00:12:54;;;;;;;15.77;14.53;;;5.60;16.90;;;;;;5057952;28;20630;-48
2023/12/08 00:15:20;;;;;;;15.00;13.90;;;5.50;17.30;;;;;;5067172;28;20203;-46
2023/12/08 00:17:45;;;;;;;15.60;14.50;;;5.50;16.80;;;;;;5050895;28;20587;-48
2023/12/08 00:20:11;;;;;;;15.50;14.40;;;5.30;16.70;;;;;;5067298;28;20190;-49
2023/12/08 00:22:37;;;;;;;15.03;14.13;;;5.40;16.80;;;;;;5067127;28;20219;-49
2023/12/08 00:25:02;;;;;;;16.20;15.10;;;5.60;16.50;;;;;;5059325;28;20218;-47
2023/12/08 00:27:28;;;;;;;15.50;14.50;;;5.60;16.60;;;;;;5056150;28;20245;-49
2023/12/08 00:29:53;;;;;;;15.83;14.83;;;5.70;16.50;;;;;;5051857;28;20644;-52
2023/12/08 00:32:20;;;;;;;15.20;14.13;;;5.70;16.40;;;;;;5067141;28;20203;-46
2023/12/08 00:34:46;;;;;;;15.90;14.90;;;5.80;16.20;;;;;;5058703;28;20556;-46
2023/12/08 00:37:12;;;;;;;16.60;15.50;;;5.80;16.60;;;;;;5067048;28;20422;-48
2023/12/08 00:39:38;;;;;;;16.97;15.57;;;5.70;16.70;;;;;;5069499;28;20587;-46
2023/12/08 00:42:04;;;;;;;16.00;14.87;;;5.50;17.10;;;;;;5057988;28;20422;-56
2023/12/08 00:44:29;;;;;;;15.47;14.50;;;5.50;17.40;;;;;;5058547;28;20804;-58
2023/12/08 00:46:55;;;;;;;15.90;14.60;;;5.60;17.10;;;;;;5051700;28;20633;-58
2023/12/08 00:49:20;;;;;;;16.50;15.40;;;5.70;16.90;;;;;;5067133;28;20181;-59
2023/12/08 00:51:46;;;;;;;18.23;16.87;;;5.80;16.70;;;;;;5057888;28;20672;-58
2023/12/08 00:54:14;;;;;;;16.97;15.77;;;5.70;17.10;;;;;;5067058;28;20183;-59
2023/12/08 00:56:39;;;;;;;16.37;15.37;;;5.70;17.00;;;;;;5066673;28;20259;-59
2023/12/08 00:59:05;;;;;;;14.57;13.67;;;5.70;16.30;;;;;;5052923;28;20517;-59
2023/12/08 01:01:31;;;;;;;16.53;15.30;;;5.70;17.10;;;;;;5068420;28;20245;-59
2023/12/08 01:03:56;;;;;;;14.93;13.83;;;5.70;16.90;;;;;;5057846;28;20184;-58
2023/12/08 01:06:22;;;;;;;15.87;14.87;;;5.70;16.20;;;;;;5058275;28;20179;-57
2023/12/08 01:08:48;;;;;;;14.83;13.83;;;5.60;16.20;;;;;;5050522;28;20722;-58
2023/12/08 01:11:14;;;;;;;14.83;13.83;;;5.80;16.70;;;;;;5066729;28;20426;-58
2023/12/08 01:13:40;;;;;;;15.27;14.27;;;6.00;15.70;;;;;;5066647;28;20458;-59
2023/12/08 01:16:08;;;;;;;13.17;12.37;;;6.00;15.80;;;;;;5052936;28;20417;-46
2023/12/08 01:18:34;;;;;;;14.47;13.50;;;6.10;15.90;;;;;;5066536;28;20191;-45
2023/12/08 01:21:00;;;;;;;13.80;12.90;;;6.10;15.70;;;;;;5052148;28;20427;-47
2023/12/08 01:23:25;;;;;;;14.00;13.00;;;6.00;15.90;;;;;;5066527;28;20180;-48
2023/12/08 01:25:51;;;;;;;12.57;11.77;;;6.10;16.10;;;;;;5053233;28;20184;-44
2023/12/08 01:28:17;;;;;;;13.87;12.97;;;6.00;15.50;;;;;;5070454;28;20176;-45
2023/12/08 01:30:43;;;;;;;15.13;14.10;;;5.80;16.20;;;;;;5062125;28;20903;-47
2023/12/08 01:33:08;;;;;;;14.43;13.43;;;5.60;16.70;;;;;;5056963;28;20204;-59
2023/12/08 01:35:34;;;;;;;13.77;13.00;;;5.50;16.80;;;;;;5070123;28;20647;-58
2023/12/08 01:37:59;;;;;;;14.70;13.80;;;5.40;17.10;;;;;;5055743;28;20204;-57
2023/12/08 01:40:25;;;;;;;14.00;13.20;;;5.40;17.30;;;;;;5070101;28;20180;-58
2023/12/08 01:42:51;;;;;;;13.53;12.60;;;5.30;16.90;;;;;;5054474;28;20187;-59
2023/12/08 01:45:16;;;;;;;12.60;11.80;;;5.40;17.30;;;;;;5070261;28;20228;-58
2023/12/08 01:47:43;;;;;;;12.97;12.07;;;5.60;16.80;;;;;;5071623;28;20191;-59
2023/12/08 01:50:10;;;;;;;12.43;11.60;;;5.80;17.00;;;;;;5069900;28;20195;-49
2023/12/08 01:52:36;;;;;;;12.20;11.40;;;6.10;16.30;;;;;;5061167;28;20877;-48
2023/12/08 01:55:03;;;;;;;13.50;12.70;;;6.30;15.60;;;;;;5055661;28;20422;-47
2023/12/08 01:57:28;;;;;;;12.00;11.30;;;6.20;15.30;;;;;;5070596;28;20830;-45
2023/12/08 01:59:55;;;;;;;13.23;12.33;;;6.30;15.10;;;;;;5061477;28;20484;-47
2023/12/08 02:02:21;;;;;;;11.03;10.40;;;6.30;15.90;;;;;;5069655;28;20647;-59
2023/12/08 02:04:49;;;;;;;12.70;11.90;;;6.50;15.40;;;;;;5053739;28;20423;-59
2023/12/08 02:07:15;;;;;;;12.80;12.00;;;6.60;14.80;;;;;;5069991;28;20434;-58
2023/12/08 02:09:41;;;;;;;12.37;11.40;;;6.70;14.90;;;;;;5061383;28;20419;-57
2023/12/08 02:12:08;;;;;;;11.80;11.00;;;6.70;14.40;;;;;;5056112;28;20597;-57
2023/12/08 02:14:34;;;;;;;12.07;11.33;;;6.70;14.70;;;;;;5061477;28;20446;-59
2023/12/08 02:17:05;;;;;;;11.80;10.90;;;6.60;14.60;;;;;;5054921;28;20983;-59
2023/12/08 02:19:31;;;;;;;12.70;11.80;;;6.60;14.90;;;;;;5069614;28;20422;-59
2023/12/08 02:21:57;;;;;;;12.27;11.57;;;6.50;14.90;;;;;;5047973;28;20430;-58
2023/12/08 02:24:22;;;;;;;12.07;11.27;;;6.60;14.50;;;;;;5061146;28;20434;-59
2023/12/08 02:26:49;;;;;;;12.20;11.30;;;6.60;14.40;;;;;;5061141;28;20530;-49
2023/12/08 02:29:16;;;;;;;11.60;10.90;;;6.60;14.80;;;;;;5061335;28;20523;-51
2023/12/08 02:31:51;;;;;;;11.90;11.27;;;6.60;14.30;;;;;;5061264;28;20727;-52
2023/12/08 02:37:45;;;;;;;11.50;10.80;;;6.40;14.50;;;;;;5051387;28;20916;-51
2023/12/08 02:40:12;;;;;;;10.83;10.23;;;6.30;15.10;;;;;;5058733;28;20512;-50
2023/12/08 02:42:38;;;;;;;11.80;11.10;;;6.40;14.80;;;;;;5060167;28;20423;-45
2023/12/08 02:45:04;;;;;;;11.80;11.20;;;6.30;14.60;;;;;;5055113;28;20949;-51
2023/12/08 02:47:30;;;;;;;11.70;10.70;;;6.10;15.20;;;;;;5061168;28;20240;-52
2023/12/08 02:49:55;;;;;;;12.17;11.37;;;6.10;15.50;;;;;;5053863;28;20745;-60
2023/12/08 02:52:21;;;;;;;11.73;11.03;;;6.10;15.20;;;;;;5069109;28;20284;-59
2023/12/08 02:54:46;;;;;;;12.00;11.30;;;6.20;15.30;;;;;;5052572;28;20180;-59
2023/12/08 02:57:12;;;;;;;11.90;11.10;;;6.10;15.40;;;;;;5060390;28;20172;-60
2023/12/08 02:59:37;;;;;;;11.03;10.43;;;6.20;15.50;;;;;;5061082;28;20187;-59
2023/12/08 03:02:03;;;;;;;10.80;10.03;;;6.30;15.40;;;;;;5054699;28;20182;-59
2023/12/08 03:04:29;;;;;;;11.80;11.10;;;6.30;15.10;;;;;;5061385;28;20647;-59
2023/12/08 03:06:54;;;;;;;10.90;10.20;;;6.30;15.40;;;;;;5053298;28;20195;-59
2023/12/08 03:09:20;;;;;;;12.07;11.33;;;6.30;15.10;;;;;;5060846;28;20179;-60
2023/12/08 03:11:46;;;;;;;11.63;10.90;;;6.40;15.20;;;;;;5052261;28;20277;-59
2023/12/08 03:14:11;;;;;;;11.33;10.70;;;6.40;15.10;;;;;;5060128;28;20206;-57
2023/12/08 03:16:37;;;;;;;11.13;10.53;;;6.40;14.70;;;;;;5060948;28;20203;-55
2023/12/08 03:19:02;;;;;;;11.37;10.77;;;6.50;15.40;;;;;;5054122;28;20711;-56
2023/12/08 03:21:28;;;;;;;11.17;10.57;;;6.50;14.60;;;;;;5061128;28;20182;-58
2023/12/08 03:23:53;;;;;;;11.83;11.17;;;6.60;14.40;;;;;;5052998;28;20184;-58
2023/12/08 03:26:19;;;;;;;11.47;10.73;;;6.60;14.30;;;;;;5060163;28;20180;-58
2023/12/08 03:28:45;;;;;;;11.70;11.00;;;6.60;14.90;;;;;;5052036;28;20180;-58
2023/12/08 03:31:27;;;;;;;11.03;10.43;;;6.60;14.30;;;;;;5059703;28;20521;-58
2023/12/08 03:33:53;;;;;;;10.80;10.20;;;6.50;14.30;;;;;;5053428;28;20176;-59
2023/12/08 03:36:19;;;;;;;11.17;10.53;;;6.20;14.20;;;;;;5059516;28;20421;-58
2023/12/08 03:38:45;;;;;;;10.83;10.13;;;6.20;14.60;;;;;;5060343;28;21061;-58
2023/12/08 03:41:14;;;;;;;10.03;9.50;;;6.30;14.80;;;;;;5059659;28;20942;-58
2023/12/08 03:43:40;;;;;;;11.73;10.93;;;6.30;15.10;;;;;;5052693;28;20179;-58
2023/12/08 03:46:06;;;;;;;11.67;10.80;;;6.50;14.70;;;;;;5053979;28;20491;-58
2023/12/08 03:48:34;;;;;;;16.67;11.57;;;6.50;14.30;;;;;;5061969;28;20438;-59
2023/12/08 03:50:59;;;;;;;10.47;9.73;;;6.60;14.30;;;;;;5055751;28;20419;-57
2023/12/08 03:53:25;;;;;;;11.23;10.53;;;6.70;13.60;;;;;;5051477;28;20465;-59
2023/12/08 03:55:51;;;;;;;10.60;10.00;;;6.70;13.00;;;;;;5026275;28;20180;-57
2023/12/08 03:58:16;;;;;;;11.20;10.40;;;6.60;13.50;;;;;;5059285;28;20196;-57
2023/12/08 04:00:42;;;;;;;11.60;10.90;;;6.50;13.40;;;;;;5060112;28;20465;-59
2023/12/08 04:03:08;;;;;;;10.13;9.53;;;6.30;13.30;;;;;;5053403;28;20190;-59
2023/12/08 04:05:33;;;;;;;11.43;10.73;;;6.30;14.10;;;;;;5059750;28;20225;-58
2023/12/08 04:07:59;;;;;;;11.80;11.10;;;6.20;14.20;;;;;;5045096;28;20186;-59
2023/12/08 04:10:24;;;;;;;11.67;10.87;;;6.20;14.80;;;;;;5058198;28;20211;-59
2023/12/08 04:12:50;;;;;;;12.00;11.20;;;6.00;14.90;;;;;;5050446;28;20212;-59
2023/12/08 04:15:15;;;;;;;11.57;10.93;;;5.70;15.60;;;;;;5058256;28;20257;-59
2023/12/08 04:17:41;;;;;;;10.73;10.20;;;5.60;16.00;;;;;;5036493;28;20190;-58
2023/12/08 04:20:07;;;;;;;11.30;10.70;;;5.70;15.90;;;;;;5053833;28;20575;-58
2023/12/08 04:22:32;;;;;;;11.97;11.37;;;5.80;15.70;;;;;;5061059;28;20183;-58
2023/12/08 04:24:58;;;;;;;12.17;11.20;;;6.00;15.80;;;;;;5052667;28;20431;-55
2023/12/08 04:27:24;;;;;;;10.40;9.80;;;6.10;15.30;;;;;;5060055;28;20192;-59
2023/12/08 04:29:49;;;;;;;11.73;10.97;;;6.20;15.60;;;;;;5051246;28;20184;-59
2023/12/08 04:32:15;;;;;;;13.57;12.40;;;6.20;15.70;;;;;;5051802;28;20227;-58
2023/12/08 04:34:41;;;;;;;11.00;10.40;;;6.40;15.80;;;;;;5061107;28;20189;-46
2023/12/08 04:37:06;;;;;;;12.03;11.33;;;6.50;15.20;;;;;;5045172;28;20640;-48
2023/12/08 04:39:32;;;;;;;11.30;10.60;;;6.40;15.60;;;;;;5058572;28;20214;-47
2023/12/08 04:41:57;;;;;;;11.87;11.17;;;6.50;15.80;;;;;;5060126;28;20713;-51
2023/12/08 04:44:23;;;;;;;10.37;9.77;;;6.60;17.40;;;;;;5060516;28;20524;-51
2023/12/08 04:46:49;;;;;;;11.10;10.40;;;6.80;18.20;;;;;;5051495;28;20188;-49
2023/12/08 04:49:14;;;;;;;11.00;10.30;;;6.90;17.60;;;;;;5058646;28;20204;-49
2023/12/08 04:51:43;;;;;;;10.50;9.80;;;6.90;18.10;;;;;;5052744;28;20223;-45
2023/12/08 04:54:09;;;;;;;10.63;10.03;;;6.50;19.20;;;;;;5047632;28;20648;-48
2023/12/08 04:56:34;;;;;;;10.53;9.93;;;6.50;19.50;;;;;;5041769;28;20510;-46
2023/12/08 04:59:00;;;;;;;11.00;10.30;;;6.70;20.20;;;;;;5051478;28;20262;-47
2023/12/08 05:01:25;;;;;;;10.87;10.27;;;6.50;20.00;;;;;;5047780;28;20307;-46
2023/12/08 05:03:52;;;;;;;11.20;10.50;;;6.50;20.00;;;;;;5054564;28;20594;-59
2023/12/08 05:06:17;;;;;;;12.00;11.00;;;6.50;20.90;;;;;;5062213;28;20199;-58
2023/12/08 05:08:43;;;;;;;11.13;10.43;;;6.70;21.10;;;;;;5066014;28;20430;-59
2023/12/08 05:11:09;;;;;;;11.70;11.00;;;6.80;21.20;;;;;;5055480;28;20263;-57
2023/12/08 05:13:35;;;;;;;12.00;11.30;;;7.10;21.30;;;;;;5064964;28;20656;-59
2023/12/08 05:16:00;;;;;;;11.40;10.80;;;7.30;20.70;;;;;;5064002;28;20261;-59
2023/12/08 05:18:26;;;;;;;11.40;10.80;;;7.40;20.70;;;;;;5060963;28;20885;-59
2023/12/08 05:20:52;;;;;;;11.80;11.20;;;7.50;20.80;;;;;;5055214;28;20234;-59
2023/12/08 05:23:18;;;;;;;11.73;11.03;;;7.70;20.70;;;;;;5055805;28;20184;-58
2023/12/08 05:25:44;;;;;;;11.30;10.60;;;7.80;20.50;;;;;;5054118;28;20525;-59
2023/12/08 05:28:10;;;;;;;11.83;11.23;;;7.90;20.30;;;;;;5063402;28;20592;-59
2023/12/08 05:30:35;;;;;;;12.10;11.43;;;8.10;20.40;;;;;;5048072;28;20443;-60
2023/12/08 05:33:02;;;;;;;11.70;11.10;;;8.10;20.90;;;;;;5060393;28;20714;-48
2023/12/08 05:35:28;;;;;;;11.73;11.00;;;8.10;21.30;;;;;;5054764;28;20196;-48
2023/12/08 05:37:53;;;;;;;12.27;11.67;;;8.00;21.60;;;;;;5055187;28;20430;-51
2023/12/08 05:40:19;;;;;;;11.30;10.70;;;7.40;22.30;;;;;;5063739;28;20211;-46
2023/12/08 05:42:44;;;;;;;12.10;11.30;;;7.00;24.10;;;;;;5055327;28;20191;-47
2023/12/08 05:45:10;;;;;;;12.73;12.00;;;6.30;24.70;;;;;;5062137;28;20184;-44
2023/12/08 05:47:36;;;;;;;12.83;12.13;;;6.10;25.90;;;;;;5065516;28;20819;-59
2023/12/08 05:50:02;;;;;;;12.40;11.70;;;6.00;26.50;;;;;;5056148;28;20468;-56
2023/12/08 05:52:28;;;;;;;12.57;11.80;;;5.90;26.50;;;;;;5065106;28;20237;-59
2023/12/08 05:54:54;;;;;;;13.10;12.40;;;5.80;27.00;;;;;;5055498;28;21000;-60
2023/12/08 05:57:19;;;;;;;12.30;11.60;;;5.70;28.00;;;;;;5061730;28;20182;-58
2023/12/08 05:59:45;;;;;;;13.00;12.30;;;5.60;28.20;;;;;;5055097;28;20195;-58
2023/12/08 06:02:10;;;;;;;12.27;11.57;;;5.60;28.20;;;;;;5045400;28;20188;-58
2023/12/08 06:04:36;;;;;;;14.67;13.47;;;5.60;28.00;;;;;;5065607;28;20583;-57
2023/12/08 06:07:03;;;;;;;13.00;12.30;;;5.60;28.70;;;;;;5055720;28;20794;-56
2023/12/08 06:09:29;;;;;;;14.80;13.80;;;5.50;28.20;;;;;;5071334;28;20290;-57
2023/12/08 06:11:55;;;;;;;11.80;11.13;;;5.60;29.20;;;;;;5054734;28;20482;-50
2023/12/08 06:14:20;;;;;;;12.80;12.00;;;5.60;29.20;;;;;;5061629;28;20180;-50
2023/12/08 06:16:46;;;;;;;13.37;12.67;;;5.70;28.60;;;;;;5057912;28;20266;-50
2023/12/08 06:19:11;;;;;;;12.83;12.10;;;5.60;28.50;;;;;;5056767;28;20180;-59
2023/12/08 06:21:37;;;;;;;13.63;12.83;;;5.50;28.10;;;;;;5065348;28;20180;-58
2023/12/08 06:24:03;;;;;;;13.70;12.90;;;5.30;27.80;;;;;;5055658;28;20180;-58
2023/12/08 06:26:29;;;;;;;13.07;12.27;;;5.20;28.90;;;;;;5070740;28;20601;-58
2023/12/08 06:28:54;;;;;;;15.00;13.80;;;5.30;29.50;;;;;;5054949;28;20438;-58
2023/12/08 06:31:20;;;;;;;14.00;13.20;;;5.40;29.80;;;;;;5061324;28;20180;-59
2023/12/08 06:33:45;;;;;;;12.80;12.13;;;5.50;30.30;;;;;;5055014;28;20184;-58
2023/12/08 06:36:11;;;;;;;13.37;12.50;;;5.40;29.10;;;;;;5060813;28;20328;-57
2023/12/08 06:38:37;;;;;;;13.87;13.10;;;5.30;29.00;;;;;;5065058;28;20225;-59
2023/12/08 06:41:03;;;;;;;14.23;13.47;;;5.30;29.60;;;;;;5055175;28;20263;-59
2023/12/08 06:43:29;;;;;;;14.57;13.77;;;5.20;29.50;;;;;;5063072;28;20876;-58
2023/12/08 06:45:54;;;;;;;14.30;13.50;;;5.10;29.00;;;;;;5053747;28;20277;-58
2023/12/08 06:48:23;;;;;;;14.13;13.23;;;5.00;30.30;;;;;;5059259;28;20219;-59
2023/12/08 06:50:52;;;;;;;14.33;13.40;;;5.00;30.30;;;;;;5043350;28;20188;-59
2023/12/08 06:53:17;;;;;;;14.67;13.57;;;5.10;31.30;;;;;;5066526;28;20555;-58
2023/12/08 06:55:43;;;;;;;13.40;12.60;;;5.10;31.10;;;;;;5066287;28;20454;-56
2023/12/08 06:58:09;;;;;;;13.13;12.40;;;5.10;31.20;;;;;;5052166;28;20671;-58
2023/12/08 07:00:34;;;;;;;13.30;12.50;;;5.10;31.60;;;;;;5054394;28;20667;-59
2023/12/08 07:03:00;;;;;;;13.80;13.00;;;5.00;31.10;;;;;;5040791;28;20183;-57
2023/12/08 07:05:26;;;;;;;12.73;11.93;;;5.00;32.00;;;;;;5061153;28;20195;-49
2023/12/08 07:07:51;;;;;;;14.53;13.73;;;5.10;32.30;;;;;;5052946;28;20219;-49
2023/12/08 07:10:17;;;;;;;14.40;13.60;;;5.10;33.10;;;;;;5046026;28;20526;-50
2023/12/08 07:12:43;;;;;;;14.00;12.90;;;5.00;32.80;;;;;;5064880;28;20211;-50
2023/12/08 07:15:10;;;;;;;13.63;12.67;;;4.90;33.80;;;;;;5055183;28;20187;-49
2023/12/08 07:17:35;;;;;;;14.10;13.20;;;5.00;33.80;;;;;;5064608;28;20487;-46
2023/12/08 07:20:01;;;;;;;15.30;14.40;;;5.00;34.50;;;;;;5054053;28;20422;-50
2023/12/08 07:22:27;;;;;;;15.27;14.37;;;5.00;36.20;;;;;;5059551;28;20330;-46
2023/12/08 07:24:53;;;;;;;15.70;14.50;;;4.90;35.90;;;;;;5044441;28;20723;-48
2023/12/08 07:27:18;;;;;;;14.37;13.50;;;4.90;36.30;;;;;;5062322;28;20184;-49
2023/12/08 07:29:44;;;;;;;15.10;13.90;;;4.90;36.40;;;;;;5062132;28;20531;-49
2023/12/08 07:32:10;;;;;;;14.50;13.60;;;5.00;36.70;;;;;;5060088;28;20250;-50
2023/12/08 07:34:36;;;;;;;13.90;12.80;;;5.00;37.30;;;;;;5059626;28;20180;-51
2023/12/08 07:37:01;;;;;;;15.00;13.90;;;5.00;37.60;;;;;;5054939;28;20431;-49
2023/12/08 07:39:27;;;;;;;15.07;14.27;;;5.10;38.50;;;;;;5054772;28;20648;-47
2023/12/08 07:41:53;;;;;;;14.13;13.23;;;5.10;38.50;;;;;;5060807;28;20678;-45
2023/12/08 07:44:18;;;;;;;15.20;14.30;;;5.00;39.50;;;;;;5059664;28;20438;-45
2023/12/08 07:46:44;;;;;;;13.27;12.33;;;5.00;40.40;;;;;;5032117;28;20192;-51
2023/12/08 07:49:10;;;;;;;13.03;12.17;;;5.10;40.90;;;;;;5062094;28;20491;-52
2023/12/08 07:51:36;;;;;;;11.57;10.97;;;5.20;41.50;;;;;;5062248;28;20215;-53
2023/12/08 07:54:03;;;;;;;12.87;12.13;;;5.30;41.70;;;;;;5053455;28;20183;-52
2023/12/08 07:56:29;;;;;;;12.77;12.07;;;5.30;42.10;;;;;;5060231;28;20481;-46
2023/12/08 07:58:54;;;;;;;12.47;11.67;;;5.40;42.40;;;;;;5053456;28;20445;-47
2023/12/08 08:01:20;;;;;;;12.40;11.70;;;5.50;42.10;;;;;;5059338;28;20267;-44
2023/12/08 08:03:46;;;;;;;13.37;12.37;;;5.50;41.30;;;;;;5039076;28;20192;-43
2023/12/08 08:06:11;;;;;;;12.53;11.73;;;5.60;41.90;;;;;;5066647;28;20180;-45
2023/12/08 08:08:37;;;;;;;14.13;13.23;;;5.60;41.80;;;;;;5053808;28;20188;-44
2023/12/08 08:11:03;;;;;;;12.73;11.90;;;5.60;41.90;;;;;;5048462;28;20180;-47
2023/12/08 08:13:29;;;;;;;12.40;11.60;;;5.70;42.00;;;;;;5060190;28;20208;-50
2023/12/08 08:15:55;;;;;;;10.97;10.27;;;5.70;42.10;;;;;;5053712;28;20438;-47
2023/12/08 08:18:21;;;;;;;13.27;12.33;;;5.70;42.50;;;;;;5059059;28;20187;-46
2023/12/08 08:20:50;;;;;;;12.17;11.40;;;5.80;41.80;;;;;;5053354;28;20192;-49
2023/12/08 08:23:16;;;;;;;13.43;12.60;;;5.90;41.00;;;;;;5058874;28;20508;-48
2023/12/08 08:25:41;;;;;;;12.50;11.70;;;5.90;40.90;;;;;;5064514;28;20795;-45
2023/12/08 08:28:07;;;;;;;13.20;12.20;;;5.90;40.90;;;;;;5049958;28;20445;-45
2023/12/08 08:30:33;;;;;;;12.47;11.77;;;6.00;40.80;;;;;;5056649;28;20184;-48
2023/12/08 08:32:59;;;;;;;12.60;11.60;;;6.00;40.50;;;;;;5053674;28;20242;-56
2023/12/08 08:35:25;;;;;;;13.03;12.03;;;6.10;40.60;;;;;;5057404;28;20445;-58
2023/12/08 08:37:50;;;;;;;13.03;12.13;;;6.20;41.20;;;;;;5051083;28;20423;-56
2023/12/08 08:40:16;;;;;;;12.13;11.53;;;6.40;40.50;;;;;;5059820;28;20531;-56
2023/12/08 08:42:41;;;;;;;12.20;11.30;;;6.50;39.70;;;;;;5061473;28;20197;-56
2023/12/08 08:45:07;;;;;;;11.93;11.13;;;6.70;39.90;;;;;;5044371;28;20187;-55
2023/12/08 08:47:33;;;;;;;12.17;11.27;;;7.00;38.90;;;;;;5068133;28;20192;-47
2023/12/08 08:49:59;;;;;;;11.40;10.70;;;7.30;38.50;;;;;;5053204;28;20430;-47
2023/12/08 08:52:25;;;;;;;11.40;10.70;;;7.50;37.60;;;;;;5059085;28;20203;-45
2023/12/08 08:54:50;;;;;;;10.90;10.30;;;7.70;37.00;;;;;;5051022;28;20485;-45
2023/12/08 08:57:17;;;;;;;12.00;11.30;;;7.80;36.20;;;;;;5055933;28;20180;-45
2023/12/08 08:59:42;;;;;;;12.03;11.33;;;8.00;35.90;;;;;;5063029;28;20198;-48
2023/12/08 09:02:08;;;;;;;11.47;10.77;;;8.10;35.50;;;;;;5037525;28;20430;-47
2023/12/08 09:04:34;;;;;;;11.07;10.50;;;8.20;35.20;;;;;;5058562;28;20249;-45
2023/12/08 09:06:59;;;;;;;11.30;10.70;;;8.30;35.10;;;;;;5043989;28;20195;-44
2023/12/08 09:09:25;;;;;;;12.03;11.43;;;8.40;34.90;;;;;;5055815;28;20219;-45
2023/12/08 09:11:51;;;;;;;13.43;12.60;;;8.40;34.90;;;;;;5053733;28;20208;-45
2023/12/08 09:14:16;;;;;;;12.03;11.43;;;8.50;35.00;;;;;;5058564;28;20188;-47
2023/12/08 09:16:42;;;;;;;12.80;12.00;;;8.50;35.80;;;;;;5065088;28;20180;-52
2023/12/08 09:19:08;;;;;;;13.17;12.07;;;8.50;36.00;;;;;;5048446;28;20640;-46
2023/12/08 09:21:33;;;;;;;13.60;12.77;;;8.40;36.30;;;;;;5060148;28;20183;-50
2023/12/08 09:23:59;;;;;;;15.80;14.70;;;8.50;36.60;;;;;;5053289;28;20659;-52
2023/12/08 09:26:24;;;;;;;18.40;17.00;;;8.50;35.60;;;;;;5042211;28;20188;-49
2023/12/08 09:28:50;;;;;;;15.90;14.90;;;8.40;35.70;;;;;;5053319;28;20191;-56
2023/12/08 09:31:16;;;;;;;21.00;19.03;;;8.30;36.20;;;;;;5058202;28;20192;-54
2023/12/08 09:33:42;;;;;;;19.60;18.03;;;8.20;35.70;;;;;;5065071;28;20206;-56
2023/12/08 09:36:08;;;;;;;18.77;17.57;;;8.20;36.00;;;;;;5052985;28;20212;-54
2023/12/08 09:38:34;;;;;;;20.53;18.93;;;8.30;35.80;;;;;;5049700;28;20422;-55
2023/12/08 09:41:06;;;;;;;19.63;18.03;;;8.20;34.80;;;;;;5052007;28;20459;-56
2023/12/08 09:43:40;;;;;;;19.43;18.03;;;8.10;35.70;;;;;;5055984;28;20564;-56
2023/12/08 09:46:08;;;;;;;19.23;17.43;;;8.20;35.40;;;;;;5042492;28;20431;-52
2023/12/08 09:48:37;;;;;;;18.83;17.20;;;8.10;35.70;;;;;;5051969;28;20418;-56
2023/12/08 09:51:04;;;;;;;18.73;17.23;;;8.20;36.30;;;;;;5051540;28;20434;-54
2023/12/08 09:53:31;;;;;;;18.47;17.23;;;8.30;35.90;;;;;;5053631;28;20978;-45
2023/12/08 09:55:58;;;;;;;17.47;16.00;;;8.30;35.60;;;;;;5046416;28;20496;-50
2023/12/08 09:58:26;;;;;;;17.40;16.20;;;8.40;35.50;;;;;;5047221;28;20489;-46
2023/12/08 10:00:52;;;;;;;15.63;14.57;;;8.40;35.40;;;;;;5049151;28;20444;-48
2023/12/08 10:03:17;;;;;;;13.33;12.63;;;8.40;35.20;;;;;;5049370;28;20423;-44
2023/12/08 10:05:43;;;;;;;13.30;12.60;;;8.30;34.70;;;;;;5035081;28;20485;-48
2023/12/08 10:08:09;;;;;;;13.40;12.50;;;8.20;35.70;;;;;;5057694;28;20184;-46
2023/12/08 10:10:37;;;;;;;12.77;11.97;;;8.10;35.60;;;;;;5056086;28;20329;-47
2023/12/08 10:13:03;;;;;;;12.80;12.03;;;7.90;36.40;;;;;;5053130;28;20842;-47
2023/12/08 10:15:28;;;;;;;12.83;12.13;;;7.80;36.30;;;;;;5051683;28;20424;-48
2023/12/08 10:17:54;;;;;;;12.17;11.47;;;7.70;37.60;;;;;;5049694;28;20183;-47
2023/12/08 10:20:20;;;;;;;12.17;11.27;;;7.60;38.00;;;;;;5049067;28;20191;-44
2023/12/08 10:22:54;;;;;;;12.37;11.67;;;7.60;38.40;;;;;;5057238;28;20299;-49
2023/12/08 10:25:21;;;;;;;11.17;10.57;;;7.70;38.50;;;;;;5049051;28;20433;-52
2023/12/08 10:27:49;;;;;;;12.17;11.27;;;7.80;37.70;;;;;;5044403;28;20765;-49
2023/12/08 10:30:16;;;;;;;11.20;10.60;;;7.80;38.00;;;;;;5044531;28;20430;-49
2023/12/08 10:32:43;;;;;;;12.50;11.70;;;7.80;38.00;;;;;;5057166;28;20493;-47
2023/12/08 10:35:12;;;;;;;11.70;11.00;;;7.70;37.80;;;;;;5040458;28;20546;-49
2023/12/08 10:37:39;;;;;;;11.53;10.93;;;7.80;38.20;;;;;;5053085;28;20438;-46
2023/12/08 10:40:07;;;;;;;11.30;10.50;;;7.90;37.10;;;;;;5059382;28;20445;-46
2023/12/08 10:42:33;;;;;;;12.07;11.43;;;7.90;37.00;;;;;;5049528;28;20435;-52
2023/12/08 10:45:00;;;;;;;11.60;10.93;;;7.90;36.80;;;;;;5039702;28;20492;-49
2023/12/08 10:47:26;;;;;;;11.27;10.67;;;7.90;37.10;;;;;;5051743;28;20187;-46
2023/12/08 10:49:54;;;;;;;10.80;10.20;;;8.00;37.10;;;;;;5036159;28;20465;-50
2023/12/08 10:52:22;;;;;;;12.00;11.20;;;8.00;37.50;;;;;;5056348;28;20984;-47
2023/12/08 10:54:49;;;;;;;11.53;10.93;;;8.00;38.00;;;;;;5041831;28;20422;-48
2023/12/08 10:57:15;;;;;;;10.60;9.97;;;8.00;37.90;;;;;;5039162;28;20519;-48
2023/12/08 10:59:44;;;;;;;11.00;10.40;;;8.00;37.90;;;;;;5044583;28;20764;-45
2023/12/08 11:02:20;;;;;;;11.63;10.83;;;7.90;38.00;;;;;;5044234;28;20830;-48
2023/12/08 11:04:53;;;;;;;11.20;10.60;;;8.00;38.70;;;;;;5041615;28;20929;-47
2023/12/08 11:07:27;;;;;;;11.80;11.10;;;8.20;38.90;;;;;;5050963;28;20476;-49
2023/12/08 11:09:56;;;;;;;10.00;9.50;;;8.40;38.40;;;;;;5052787;28;20441;-49
2023/12/08 11:12:26;;;;;;;11.63;11.03;;;8.50;36.80;;;;;;5051469;28;20824;-49
2023/12/08 11:15:01;;;;;;;11.37;10.67;;;8.50;36.90;;;;;;5038908;28;20486;-47
2023/12/08 11:17:37;;;;;;;10.23;9.63;;;8.60;37.00;;;;;;5079880;28;20424;-46
2023/12/08 11:20:05;;;;;;;10.97;10.47;;;8.60;36.80;;;;;;5055691;28;20440;-46
2023/12/08 11:22:33;;;;;;;11.20;10.60;;;8.40;36.90;;;;;;5061526;28;20454;-49
2023/12/08 11:25:04;;;;;;;10.10;9.60;;;8.40;37.10;;;;;;5064504;28;20437;-48
2023/12/08 11:27:40;;;;;;;10.70;10.20;;;8.50;37.70;;;;;;5057746;28;20835;-57
2023/12/08 11:30:17;;;;;;;11.83;11.17;;;8.60;37.60;;;;;;5064244;28;20520;-56
2023/12/08 11:33:05;;;;;;;11.07;10.47;;;8.70;37.10;;;;;;5057135;28;20457;-55
2023/12/08 11:35:30;;;;;;;11.53;10.93;;;8.60;36.50;;;;;;5044772;28;20429;-57
2023/12/08 11:37:56;;;;;;;10.80;10.30;;;8.70;36.50;;;;;;5055846;28;20498;-58
2023/12/08 11:40:22;;;;;;;10.23;9.73;;;8.80;36.50;;;;;;5064599;28;20697;-57
2023/12/08 11:42:50;;;;;;;9.83;9.33;;;8.70;36.10;;;;;;5055760;28;20202;-54
2023/12/08 11:45:18;;;;;;;11.20;10.50;;;8.80;36.20;;;;;;5059215;28;20521;-56
2023/12/08 11:47:43;;;;;;;11.20;10.57;;;8.80;36.30;;;;;;5055743;28;20482;-55
2023/12/08 11:50:11;;;;;;;11.97;11.37;;;8.90;36.60;;;;;;5047367;28;20964;-56
2023/12/08 11:52:37;;;;;;;10.70;10.27;;;8.90;35.70;;;;;;5065357;28;20207;-56
2023/12/08 11:55:16;;;;;;;10.10;9.50;;;8.90;36.00;;;;;;5053569;28;20426;-53
2023/12/08 11:58:03;;;;;;;9.27;8.80;;;9.00;35.80;;;;;;5062133;28;20435;-56
2023/12/08 12:00:31;;;;;;;10.80;10.30;;;9.00;35.30;;;;;;5058500;28;20438;-56
2023/12/08 12:02:58;;;;;;;9.27;8.87;;;9.10;35.70;;;;;;5057724;28;20791;-54
2023/12/08 12:05:26;;;;;;;10.23;9.73;;;9.20;35.10;;;;;;5050645;28;20426;-49
2023/12/08 12:07:53;;;;;;;9.57;9.07;;;9.20;34.70;;;;;;5043488;28;20426;-51
2023/12/08 12:10:24;;;;;;;9.37;8.80;;;9.10;34.80;;;;;;5042108;28;20438;-50
2023/12/08 12:13:14;;;;;;;9.13;8.63;;;9.00;35.10;;;;;;5053176;28;20486;-46
2023/12/08 12:15:41;;;;;;;9.10;8.70;;;9.10;35.30;;;;;;5061653;28;20439;-48
2023/12/08 12:18:07;;;;;;;9.53;8.80;;;9.10;35.20;;;;;;5049086;28;20446;-47
2023/12/08 12:20:35;;;;;;;10.20;9.70;;;9.10;35.30;;;;;;5047293;28;20422;-51
2023/12/08 12:23:02;;;;;;;8.90;8.50;;;9.30;35.80;;;;;;5046035;28;20934;-51
2023/12/08 12:25:27;;;;;;;10.40;9.90;;;9.30;35.30;;;;;;5052839;28;20484;-46
2023/12/08 12:27:54;;;;;;;9.03;8.73;;;9.40;35.00;;;;;;5039930;28;20521;-48
2023/12/08 12:30:20;;;;;;;9.27;8.93;;;9.40;33.90;;;;;;5058903;28;20188;-45
2023/12/08 12:32:48;;;;;;;10.00;9.60;;;9.20;35.60;;;;;;5055297;28;20519;-46
2023/12/08 12:35:14;;;;;;;10.20;9.80;;;9.40;35.70;;;;;;5059842;28;20983;-47
2023/12/08 12:37:41;;;;;;;9.60;9.20;;;9.40;35.60;;;;;;5069421;28;20422;-56